Latest Weather Observations for West Wyalong

IDN60801

Issued at 1:02 pm EST Saturday 1 August 2015 (issued every 30 minutes, with the page automatically refreshed every 10 minutes)

About weather observations | Map of weather stations | Latest weather observations for NSW | Other Formats
Station Details ID: 050017 Name: WEST WYALONG AIRPORT AWS Lat: -33.94 Lon: 147.20 Height: 257.0 m
Data from the previous 72 hours. | See also: Recent months for locations in New South Wales
Date/Time
EST
Temp
°C
App
Temp
°C
Dew
Point
Rel
Hum
%
Delta-T
°C
Wind Press
QNH
hPa
Press
MSL
hPa
Rain
since 9 am
mm
Dir
 
Spd
km/h
Gust
km/h
Spd
kts
Gust
kts
01/01:00pm 17.1 11.3 -8.1 17 9.3 NW 15 24 8 13 1016.4 1016.7 0.0
01/12:30pm 16.4 12.0 2.8 40 6.2 NNW 15 24 8 13 1016.9 1017.2 0.0
01/12:00pm 14.7 10.5 5.5 54 4.4 N 17 26 9 14 1017.2 1017.4 0.0
01/11:30am 13.6 10.1 7.2 65 3.2 NNW 15 20 8 11 1017.6 1017.8 0.0
01/11:00am 13.0 8.9 6.4 64 3.2 NNW 17 24 9 13 1017.7 1017.9 0.0
01/10:30am 12.6 8.5 6.4 66 3.0 NNW 17 22 9 12 1017.8 1018.1 0.0
01/10:00am 11.1 7.1 6.5 73 2.2 NNW 17 22 9 12 1017.9 1018.2 0.0
01/09:30am 10.6 6.1 6.0 73 2.2 NNW 19 22 10 12 1018.2 1018.6 0.0
01/09:00am 10.5 6.3 5.9 73 2.2 NNW 17 24 9 13 1018.1 1018.5 0.0
01/08:30am 10.0 6.2 5.8 75 2.0 NNW 15 19 8 10 1018.1 1018.5 0.0
01/08:00am 9.5 4.9 5.5 76 1.8 N 19 24 10 13 1017.8 1018.2 0.0
01/07:30am 9.1 4.5 5.5 78 1.7 NNW 19 26 10 14 1017.8 1018.2 0.0
01/07:00am 8.8 4.2 5.5 80 1.5 N 19 24 10 13 1017.8 1018.2 0.0
01/06:30am 8.6 4.4 5.5 81 1.4 NNW 17 22 9 12 1017.6 1018.0 0.0
01/06:00am 8.4 4.5 5.3 81 1.4 NNW 15 20 8 11 1017.4 1017.7 0.0
01/05:30am 8.3 4.4 5.4 82 1.3 NNW 15 20 8 11 1017.6 1018.0 0.0
01/05:00am 8.2 4.8 5.7 84 1.1 N 13 19 7 10 1017.4 1017.7 0.0
01/04:30am 7.4 3.5 5.5 88 0.9 NNW 15 17 8 9 1017.5 1017.8 0.0
01/04:00am 7.2 3.4 5.7 90 0.7 NNW 15 19 8 10 1017.9 1018.3 0.0
01/03:30am 7.0 3.2 5.6 91 0.6 NNW 15 17 8 9 1018.0 1018.4 0.0
01/03:00am 7.0 3.6 6.1 94 0.4 N 13 15 7 8 1018.4 1018.8 0.0
01/02:30am 6.5 3.6 6.5 100 0.0 NNW 11 13 6 7 1019.2 1019.6 0.0
01/02:00am 4.4 2.8 4.3 99 0.0 NNW 2 7 1 4 1019.5 1019.9 0.0
01/01:30am 5.6 3.4 5.5 99 0.0 NNW 6 7 3 4 1019.5 1019.9 0.0
01/01:00am 6.6 4.1 6.6 100 0.0 N 9 11 5 6 1019.5 1019.9 0.0
01/12:30am 6.2 3.6 6.2 100 0.0 N 9 11 5 6 1019.8 1020.2 0.0
01/12:00am 5.6 3.3 5.6 100 0.0 N 7 9 4 5 1020.1 1020.5 0.0
 
Date/Time
EST
Temp
°C
App
Temp
°C
Dew
Point
Rel
Hum
%
Delta-T
°C
Wind Press
QNH
hPa
Press
MSL
hPa
Rain
since 9 am
mm
Dir
 
Spd
km/h
Gust
km/h
Spd
kts
Gust
kts
31/11:30pm 5.3 3.1 5.2 99 0.0 N 6 6 3 3 1020.4 1020.8 0.0
31/11:00pm 6.3 3.7 6.3 100 0.0 NNE 9 13 5 7 1020.6 1021.0 0.0
31/10:30pm 5.0 3.9 4.9 99 0.0 CALM 0 0 0 0 1021.0 1021.5 0.0
31/10:00pm 4.8 3.6 4.7 99 0.0 CALM 0 0 0 0 1020.8 1021.3 0.0
31/09:30pm 5.5 4.5 5.4 99 0.0 CALM 0 0 0 0 1021.0 1021.5 0.0
31/09:00pm 5.8 4.8 5.7 99 0.0 CALM 0 2 0 1 1021.2 1021.6 0.0
31/08:30pm 5.8 3.5 4.9 94 0.4 NNW 6 7 3 4 1021.0 1021.5 0.0
31/08:00pm 6.6 5.6 5.6 93 0.4 CALM 0 0 0 0 1020.9 1021.4 0.0
31/07:30pm 7.4 6.4 5.4 87 0.9 CALM 0 0 0 0 1020.9 1021.4 0.0
31/07:00pm 9.4 7.1 5.9 79 1.6 NW 7 9 4 5 1020.5 1020.9 0.0
31/06:30pm 10.6 8.4 6.2 74 2.1 NW 7 9 4 5 1020.3 1020.7 0.0
31/06:00pm 11.7 9.5 6.0 68 2.7 NNW 7 9 4 5 1020.2 1020.6 0.0
31/05:30pm 12.2 9.9 5.8 65 3.0 NW 7 9 4 5 1020.2 1020.6 0.0
31/05:00pm 13.9 11.7 5.3 56 4.1 NNW 6 11 3 6 1019.9 1020.3 0.0
31/04:30pm 15.2 12.3 2.7 43 5.7 N 7 13 4 7 1019.9 1020.3 0.0
31/04:00pm 15.6 11.8 1.7 39 6.2 NW 11 17 6 9 1019.9 1020.3 0.0
31/03:30pm 15.2 11.8 1.7 40 6.0 WNW 9 15 5 8 1020.2 1020.6 0.0
31/03:00pm 15.7 10.8 -3.2 27 7.6 NNW 13 19 7 10 1020.4 1020.8 0.0
31/02:30pm 15.9 12.7 4.9 48 5.3 SSW 11 20 6 11 1020.4 1020.8 0.0
31/02:00pm 15.4 12.0 3.9 46 5.4 WSW 11 19 6 10 1020.6 1021.0 0.0
31/01:30pm 15.0 11.7 4.7 50 4.9 SW 11 17 6 9 1020.9 1021.4 0.0
31/01:00pm 15.1 12.8 5.6 53 4.6 WSW 7 11 4 6 1021.3 1021.7 0.0
31/12:30pm 13.9 11.2 5.8 58 3.9 SW 9 13 5 7 1021.8 1022.2 0.0
31/12:00pm 13.5 10.6 6.6 63 3.3 SSW 11 15 6 8 1022.4 1022.8 0.0
31/11:30am 13.6 10.4 6.9 64 3.3 SSW 13 15 7 8 1022.3 1022.7 0.0
31/11:00am 12.6 9.8 6.9 68 2.8 SW 11 15 6 8 1022.4 1022.8 0.0
31/10:30am 11.9 9.2 5.8 66 2.9 W 9 13 5 7 1022.3 1022.7 0.0
31/10:00am 11.4 7.4 5.1 65 2.9 SW 15 19 8 10 1022.4 1022.8 0.0
31/09:30am 11.0 7.0 4.7 65 2.9 WSW 15 17 8 9 1022.1 1022.5 0.0
31/09:00am 10.6 6.5 4.3 65 2.8 WSW 15 19 8 10 1021.7 1022.1 0.0
31/08:30am 9.6 6.5 3.8 67 2.6 WSW 9 15 5 8 1021.5 1021.9 0.0
31/08:00am 7.6 4.4 3.1 73 1.9 WNW 9 11 5 6 1021.2 1021.6 0.0
31/07:30am 6.2 2.2 2.7 78 1.5 W 13 15 7 8 1021.0 1021.5 0.0
31/07:00am 6.0 2.7 2.5 78 1.5 WNW 9 13 5 7 1020.5 1020.9 0.0
31/06:30am 6.1 2.4 2.4 77 1.5 WNW 11 13 6 7 1020.1 1020.5 0.0
31/06:00am 6.3 2.3 2.8 78 1.5 NW 13 17 7 9 1020.0 1020.4 0.0
31/05:30am 5.9 2.3 2.9 81 1.3 NW 11 15 6 8 1019.9 1020.3 0.0
31/05:00am 6.3 2.3 3.1 80 1.4 NW 13 15 7 8 1019.7 1020.1 0.0
31/04:30am 6.5 2.9 3.1 79 1.4 NW 11 15 6 8 1019.5 1019.9 0.0
31/04:00am 6.7 3.6 3.7 81 1.3 NNW 9 11 5 6 1019.5 1019.9 0.0
31/03:30am 6.5 2.6 3.5 81 1.3 NNW 13 17 7 9 1019.5 1019.9 0.0
31/03:00am 7.2 3.3 3.6 78 1.6 NNW 13 17 7 9 1019.7 1020.1 0.0
31/02:30am 7.3 3.5 3.9 79 1.5 NNW 13 17 7 9 1019.7 1020.1 0.0
31/02:00am 7.0 3.6 4.1 82 1.3 NNW 11 15 6 8 1020.4 1020.8 0.0
31/01:30am 7.0 3.6 4.1 82 1.3 NNW 11 13 6 7 1020.7 1021.2 0.0
31/01:00am 7.5 4.5 4.3 80 1.4 NNW 9 13 5 7 1020.7 1021.2 0.0
31/12:30am 7.9 5.0 4.8 81 1.4 NNW 9 13 5 7 1020.9 1021.4 0.0
31/12:00am 7.6 4.7 4.9 83 1.2 NNW 9 11 5 6 1021.0 1021.5 0.0
 
Date/Time
EST
Temp
°C
App
Temp
°C
Dew
Point
Rel
Hum
%
Delta-T
°C
Wind Press
QNH
hPa
Press
MSL
hPa
Rain
since 9 am
mm
Dir
 
Spd
km/h
Gust
km/h
Spd
kts
Gust
kts
30/11:30pm 7.9 5.3 4.3 78 1.6 NNW 7 9 4 5 1021.2 1021.6 0.0
30/11:00pm 9.0 6.7 5.0 76 1.8 NNW 6 7 3 4 1021.3 1021.7 0.0
30/10:30pm 8.9 6.4 4.9 76 1.8 NNW 7 9 4 5 1021.6 1022.0 0.0
30/10:00pm 9.6 6.8 5.0 73 2.1 NW 9 13 5 7 1021.7 1022.1 0.0
30/09:30pm 9.3 6.8 4.9 74 2.0 NNW 7 11 4 6 1021.4 1021.8 0.0
30/09:00pm 9.5 6.6 4.7 72 2.2 NNW 9 13 5 7 1021.0 1021.5 0.0
30/08:30pm 10.2 6.5 4.6 68 2.5 N 13 17 7 9 1020.7 1021.2 0.0
30/08:00pm 10.5 7.8 5.5 71 2.3 N 9 13 5 7 1020.8 1021.3 0.0
30/07:30pm 10.1 7.4 5.7 74 2.0 NNE 9 13 5 7 1020.7 1021.2 0.0
30/07:00pm 10.0 7.3 5.8 75 2.0 N 9 11 5 6 1020.9 1021.4 0.0
30/06:30pm 10.3 7.6 5.5 72 2.2 N 9 13 5 7 1021.0 1021.5 0.0
30/06:00pm 10.9 8.0 4.8 66 2.8 NNW 9 11 5 6 1021.3 1021.7 0.0
30/05:30pm 11.9 9.0 4.4 60 3.4 NNW 9 13 5 7 1021.4 1021.8 0.0
30/05:00pm 12.6 8.8 4.1 56 3.9 NW 13 17 7 9 1021.6 1022.0 0.0
30/04:30pm 13.0 9.1 3.4 52 4.4 NW 13 20 7 11 1021.9 1022.3 0.0
30/04:00pm 13.1 8.5 3.5 52 4.3 NW 17 26 9 14 1021.7 1022.1 0.0
30/03:30pm 13.1 8.4 3.2 51 4.5 NW 17 24 9 13 1021.9 1022.3 0.0
30/03:00pm 13.9 9.7 3.7 50 4.7 NNW 15 20 8 11 1021.7 1022.1 0.0
30/02:30pm 13.5 8.2 3.0 49 4.7 N 20 32 11 17 1022.0 1022.4 0.0
30/02:00pm 14.2 9.0 2.5 45 5.2 NNW 19 28 10 15 1022.9 1023.3 0.0
30/01:30pm 14.1 8.6 2.0 44 5.4 NNW 20 28 11 15 1023.3 1023.7 0.0
30/01:00pm 13.6 8.3 3.1 49 4.7 NNW 20 30 11 16 1024.1 1024.6 0.0
30/12:30pm 13.6 8.6 3.4 50 4.6 NNW 19 24 10 13 1024.9 1025.4 0.0
30/12:00pm 12.3 7.4 4.0 57 3.8 N 19 24 10 13 1025.0 1025.5 0.0
30/11:30am 11.9 7.0 4.2 59 3.5 NNW 19 28 10 15 1025.6 1026.0 0.0
30/11:00am 11.7 6.6 4.2 60 3.4 NNW 20 26 11 14 1025.8 1026.2 0.0
30/10:30am 11.3 7.2 4.5 63 3.1 NNW 15 20 8 11 1026.0 1026.4 0.0
30/10:00am 10.1 6.5 5.1 71 2.3 NNW 13 19 7 10 1026.3 1026.7 0.0
30/09:30am 8.8 6.1 5.5 80 1.5 N 9 13 5 7 1026.3 1026.7 0.0
30/09:00am 6.9 3.8 5.5 91 0.6 N 11 15 6 8 1026.4 1026.8 0.0
30/08:30am 5.7 3.4 5.7 100 0.0 N 7 9 4 5 1026.7 1027.1 0.0
30/08:00am 3.9 1.4 3.9 100 0.0 N 6 9 3 5 1026.7 1027.1 0.0
30/07:30am 0.3 -1.7 0.2 99 0.0 CALM 0 0 0 0 1026.7 1027.1 0.0
30/07:00am 0.1 -1.9 0.0 99 0.0 CALM 0 0 0 0 1026.5 1026.9 0.0
30/06:30am 0.7 -1.2 0.6 99 0.0 CALM 0 0 0 0 1026.4 1026.8 0.0
30/06:00am 0.9 -0.9 0.9 100 0.0 CALM 0 0 0 0 1026.4 1026.8 0.0
30/05:30am 1.5 -0.3 1.5 100 0.0 CALM 0 0 0 0 1026.3 1026.7 0.0
30/05:00am 2.0 0.3 2.0 100 0.0 CALM 0 0 0 0 1026.2 1026.6 0.0
30/04:30am 2.5 0.9 2.5 100 0.0 CALM 0 0 0 0 1026.1 1026.5 0.0
30/04:00am 2.8 1.3 2.8 100 0.0 CALM 0 0 0 0 1026.7 1027.1 0.0
30/03:30am 2.7 1.1 2.7 100 0.0 CALM 0 0 0 0 1027.0 1027.4 0.0
30/03:00am 3.1 1.6 3.1 100 0.0 CALM 0 0 0 0 1027.1 1027.5 0.0
30/02:30am 3.4 2.0 3.4 100 0.0 CALM 0 0 0 0 1027.4 1027.9 0.0
30/02:00am 3.2 1.7 3.1 99 0.0 CALM 0 0 0 0 1027.8 1028.3 0.0
30/01:30am 2.7 1.1 2.6 99 0.0 CALM 0 0 0 0 1028.2 1028.7 0.0
30/01:00am 3.1 0.5 3.0 99 0.0 WSW 6 7 3 4 1028.6 1029.1 0.0
30/12:30am 3.4 2.0 3.3 99 0.0 CALM 0 0 0 0 1028.5 1029.0 0.0
30/12:00am 3.2 1.7 3.1 99 0.0 CALM 0 6 0 3 1028.8 1029.3 0.0
 
Date/Time
EST
Temp
°C
App
Temp
°C
Dew
Point
Rel
Hum
%
Delta-T
°C
Wind Press
QNH
hPa
Press
MSL
hPa
Rain
since 9 am
mm
Dir
 
Spd
km/h
Gust
km/h
Spd
kts
Gust
kts
29/11:30pm 4.6 3.4 4.5 99 0.0 CALM 0 0 0 0 1029.3 1029.7 0.0
29/11:00pm 4.6 3.4 4.5 99 0.0 CALM 0 0 0 0 1028.7 1029.2 0.0
29/10:30pm 4.6 2.1 4.5 99 0.0 NNE 7 9 4 5 1029.0 1029.5 0.0
29/10:00pm 4.8 3.2 4.7 99 0.0 WSW 2 6 1 3 1029.7 1030.1 0.0
29/09:30pm 5.0 3.9 4.9 99 0.0 CALM 0 0 0 0 1029.6 1030.0 0.0
29/09:00pm 5.0 3.9 4.9 99 0.0 CALM 0 0 0 0 1030.0 1030.4 0.0
29/08:30pm 5.3 4.2 4.9 97 0.2 CALM 0 0 0 0 1030.0 1030.4 0.0
29/08:00pm 5.8 4.3 4.9 94 0.4 WSW 2 6 1 3 1030.1 1030.5 0.0
29/07:30pm 6.3 4.5 5.4 94 0.4 WSW 4 11 2 6 1029.9 1030.3 0.0
29/07:00pm 6.9 5.5 5.7 92 0.5 SW 2 7 1 4 1029.5 1029.9 0.0
29/06:30pm 7.5 6.5 5.6 88 0.9 CALM 0 0 0 0 1029.8 1030.2 0.0
29/06:00pm 8.0 6.9 5.3 83 1.2 CALM 0 0 0 0 1029.9 1030.3 0.0
29/05:30pm 9.7 8.7 5.7 76 1.9 CALM 0 0 0 0 1029.7 1030.1 0.0
29/05:00pm 10.8 9.5 6.0 72 2.2 W 2 7 1 4 1030.1 1030.5 0.0
29/04:30pm 12.0 10.6 3.3 55 3.9 CALM 0 0 0 0 1030.0 1030.4 0.0
29/04:00pm 12.3 9.5 3.3 54 4.0 NNW 7 9 4 5 1029.9 1030.3 0.0
29/03:30pm 12.5 9.6 2.4 50 4.5 NW 7 13 4 7 1030.2 1030.6 0.0
29/03:00pm 13.2 10.1 1.5 45 5.1 N 7 11 4 6 1030.6 1031.1 0.0
29/02:30pm 12.7 9.8 2.6 50 4.5 SW 7 11 4 6 1030.9 1031.4 0.0
29/02:00pm 12.5 9.7 3.2 53 4.1 ESE 7 11 4 6 1030.8 1031.3 0.0
29/01:30pm 12.2 9.3 2.6 52 4.2 NE 7 11 4 6 1031.0 1031.5 0.0

Other Formats:

Comma delimited format used in spreadsheet applications
http://www.bom.gov.au/fwo/IDN60801/IDN60801.95709.axf

JavaScript Object Notation format (JSON) in row-major order
http://www.bom.gov.au/fwo/IDN60801/IDN60801.95709.json